LGKR/CFU METAR and TAF weather

Enter ICAO airport designator
Station Type Date Time Source
LGKR METAR 2021/05/09 23:50 UTC NOAA

LGKR 092350Z 14008KT CAVOK 19/13 Q1019 NOSIG


Station Type Date Time Source
LGKR Decoded METAR 2021/05/09 23:50 UTC NOAA

Kerkyra Airport , Greece (LGKR) 39-37N 019-55E 4M
May 09, 2021 - 07:50 PM EDT / 2021.05.09 2350 UTC
Wind: from the SE (140 degrees) at 9 MPH (8 KT):0
Visibility: greater than 7 mile(s):0
Temperature: 66 F (19 C)
Dew Point: 55 F (13 C)
Relative Humidity: 68%
Pressure (altimeter): 30.09 in. Hg (1019 hPa)
ob: LGKR 092350Z 14008KT CAVOK 19/13 Q1019 NOSIG
cycle: 0

Station Type Date Time Source
LGKR TAF 2021/05/09 18:12 UTC NOAA

TAF LGKR 091700Z 0918/1018 VRB05KT 9999 FEW020
BECMG 0919/0921 14010KT

Example: see airport list